createdAt,value
2022-11-23T00:01:37.335Z,121.87
2022-11-23T00:04:13.382Z,90.43
2022-11-23T00:06:41.501Z,119.50
2022-11-23T00:09:10.756Z,127.83
2022-11-23T00:11:37.873Z,90.77
2022-11-23T00:14:05.198Z,84.07
2022-11-23T00:16:32.404Z,97.83
2022-11-23T00:19:01.943Z,88.47
2022-11-23T00:21:32.845Z,102.23
2022-11-23T00:24:00.500Z,90.70
2022-11-23T00:26:28.144Z,142.83
2022-11-23T00:28:55.210Z,116.23
2022-11-23T00:31:22.753Z,119.93
2022-11-23T00:33:53.584Z,112.63
2022-11-23T00:36:22.792Z,93.60
2022-11-23T00:38:51.182Z,106.30
2022-11-23T00:41:24.070Z,95.53
2022-11-23T00:43:51.484Z,95.23
2022-11-23T00:46:28.095Z,132.47
2022-11-23T00:48:57.374Z,117.73
2022-11-23T00:51:29.545Z,114.83
2022-11-23T00:53:56.797Z,123.97
2022-11-23T00:56:23.941Z,127.70
2022-11-23T00:58:56.552Z,111.53
2022-11-23T01:01:29.220Z,119.73
2022-11-23T01:03:59.499Z,131.23
2022-11-23T01:06:33.929Z,92.57
2022-11-23T01:09:17.217Z,126.90
2022-11-23T01:11:45.280Z,90.97
2022-11-23T01:14:12.927Z,109.27
2022-11-23T01:16:42.065Z,138.93
2022-11-23T01:19:14.779Z,109.87
2022-11-23T01:21:42.505Z,86.13
2022-11-23T01:24:22.079Z,98.47
2022-11-23T01:26:54.661Z,66.03
2022-11-23T01:29:23.783Z,88.10
2022-11-23T01:31:51.024Z,89.10
2022-11-23T01:34:18.313Z,91.57
2022-11-23T01:36:45.624Z,86.30
2022-11-23T01:39:13.895Z,105.70
2022-11-23T01:41:44.501Z,68.07
2022-11-23T01:44:32.954Z,103.17
2022-11-23T01:47:07.909Z,75.03
2022-11-23T01:49:46.204Z,73.80
2022-11-23T01:52:26.039Z,71.60
2022-11-23T01:55:01.544Z,83.73
2022-11-23T01:57:41.022Z,76.17
2022-11-23T02:00:09.278Z,72.87
2022-11-23T02:02:38.759Z,87.27
2022-11-23T02:05:06.760Z,73.97
2022-11-23T02:07:35.188Z,65.37
2022-11-23T02:10:02.734Z,69.73
2022-11-23T02:12:29.705Z,66.00
2022-11-23T02:14:56.727Z,72.33
2022-11-23T02:17:23.736Z,80.27
2022-11-23T02:20:05.591Z,76.97
2022-11-23T02:22:54.534Z,71.17
2022-11-23T02:25:45.496Z,79.97
2022-11-23T02:28:22.934Z,67.40
2022-11-23T02:30:53.181Z,79.00
2022-11-23T02:33:20.236Z,69.73
2022-11-23T02:35:55.208Z,74.00
2022-11-23T02:38:25.437Z,55.80
2022-11-23T02:40:52.485Z,68.77
2022-11-23T02:43:19.822Z,79.50
2022-11-23T02:45:58.633Z,81.30
2022-11-23T02:48:26.432Z,76.30
2022-11-23T02:50:53.453Z,62.17
2022-11-23T02:53:20.519Z,80.07
2022-11-23T02:55:47.774Z,75.10
2022-11-23T02:58:14.853Z,82.83
2022-11-23T03:00:41.920Z,85.90
2022-11-23T03:03:08.941Z,66.03
2022-11-23T03:05:36.051Z,58.80
2022-11-23T03:08:03.147Z,75.33
2022-11-23T03:10:30.222Z,70.00
2022-11-23T03:12:57.560Z,82.53
2022-11-23T03:15:28.619Z,74.30
2022-11-23T03:17:58.188Z,69.70
2022-11-23T03:20:25.395Z,87.57
2022-11-23T03:22:52.473Z,72.23
2022-11-23T03:25:19.584Z,89.83
2022-11-23T03:27:47.357Z,81.10
2022-11-23T03:30:15.463Z,74.43
2022-11-23T03:32:42.435Z,92.57
2022-11-23T03:35:09.778Z,87.70
2022-11-23T03:37:36.769Z,84.20
2022-11-23T03:40:04.087Z,97.00
2022-11-23T03:42:31.048Z,78.83
2022-11-23T03:44:58.053Z,72.90
2022-11-23T03:47:25.032Z,77.00
2022-11-23T03:49:51.989Z,97.43
2022-11-23T03:52:18.992Z,82.80
2022-11-23T03:54:46.987Z,91.63
2022-11-23T03:57:14.300Z,79.63
2022-11-23T03:59:41.276Z,82.40
2022-11-23T04:02:08.305Z,86.00
2022-11-23T04:04:36.161Z,78.43
2022-11-23T04:07:03.423Z,81.43
2022-11-23T04:09:30.869Z,85.23
2022-11-23T04:11:58.102Z,91.97
2022-11-23T04:14:25.182Z,71.87
2022-11-23T04:16:52.295Z,86.33
2022-11-23T04:19:19.463Z,77.30
2022-11-23T04:21:46.545Z,78.73
2022-11-23T04:24:13.606Z,88.83
2022-11-23T04:26:41.141Z,99.33
2022-11-23T04:29:08.136Z,108.30
2022-11-23T04:31:35.188Z,99.20
2022-11-23T04:34:02.245Z,68.17
2022-11-23T04:36:29.780Z,83.33
2022-11-23T04:38:56.783Z,95.53
2022-11-23T04:41:24.906Z,77.70
2022-11-23T04:43:51.950Z,78.00
2022-11-23T04:46:19.104Z,106.40
2022-11-23T04:48:46.134Z,83.73
2022-11-23T04:51:14.168Z,105.57
2022-11-23T04:53:41.173Z,95.20
2022-11-23T04:56:08.873Z,105.70
2022-11-23T04:58:36.552Z,70.83
2022-11-23T05:01:05.668Z,105.00
2022-11-23T05:03:35.217Z,91.33
2022-11-23T05:06:03.920Z,89.47
2022-11-23T05:08:31.763Z,94.53
2022-11-23T05:10:59.021Z,100.47
2022-11-23T05:13:26.136Z,88.13
2022-11-23T05:15:53.089Z,71.20
2022-11-23T05:18:20.406Z,84.83
2022-11-23T05:20:47.950Z,102.33
2022-11-23T05:23:15.295Z,101.30
2022-11-23T05:25:42.361Z,88.30
2022-11-23T05:28:38.895Z,76.70
2022-11-23T05:31:05.803Z,90.63
2022-11-23T05:33:32.856Z,82.77
2022-11-23T05:35:59.998Z,99.10
2022-11-23T05:38:27.289Z,87.37
2022-11-23T05:40:54.266Z,84.07
2022-11-23T05:43:21.639Z,78.00
2022-11-23T05:45:48.901Z,73.57
2022-11-23T05:48:15.877Z,89.37
2022-11-23T05:50:42.839Z,62.50
2022-11-23T05:53:09.915Z,94.17
2022-11-23T05:55:36.928Z,91.43
2022-11-23T05:58:03.934Z,77.47
2022-11-23T06:00:31.025Z,92.43
2022-11-23T06:03:02.337Z,85.53
2022-11-23T06:05:30.498Z,80.17
2022-11-23T06:07:57.853Z,64.87
2022-11-23T06:10:24.978Z,83.87
2022-11-23T06:12:52.634Z,58.57
2022-11-23T06:15:20.047Z,80.63
2022-11-23T06:17:47.110Z,70.27
2022-11-23T06:20:14.369Z,51.67
2022-11-23T06:22:41.341Z,51.73
2022-11-23T06:25:09.164Z,61.73
2022-11-23T06:27:36.213Z,63.30
2022-11-23T06:30:03.996Z,75.40
2022-11-23T06:32:30.943Z,65.67
2022-11-23T06:35:00.824Z,63.10
2022-11-23T06:37:28.358Z,54.20
2022-11-23T06:39:55.341Z,62.97
2022-11-23T06:42:39.875Z,73.97
2022-11-23T06:45:08.733Z,77.97
2022-11-23T06:47:35.974Z,55.20
2022-11-23T06:50:03.295Z,81.80
2022-11-23T06:52:30.395Z,61.27
2022-11-23T06:54:57.417Z,73.10
2022-11-23T06:57:24.649Z,79.40
2022-11-23T06:59:51.672Z,73.97
2022-11-23T07:02:18.779Z,63.20
2022-11-23T07:04:45.852Z,70.33
2022-11-23T07:07:13.089Z,70.93
2022-11-23T07:09:40.391Z,70.53
2022-11-23T07:12:07.959Z,74.93
2022-11-23T07:14:35.081Z,61.43
2022-11-23T07:17:02.235Z,52.80
2022-11-23T07:19:29.588Z,59.30
2022-11-23T07:21:56.777Z,66.83
2022-11-23T07:24:23.773Z,69.83
2022-11-23T07:26:51.161Z,61.63
2022-11-23T07:29:21.430Z,58.80
2022-11-23T07:31:48.536Z,64.23
2022-11-23T07:34:15.529Z,58.57
2022-11-23T07:36:42.626Z,61.53
2022-11-23T07:39:09.897Z,87.23
2022-11-23T07:41:36.875Z,56.23
2022-11-23T07:44:04.348Z,65.93
2022-11-23T07:46:31.341Z,43.77
2022-11-23T07:49:02.142Z,71.20
2022-11-23T07:51:29.885Z,76.90
2022-11-23T07:53:57.468Z,48.00
2022-11-23T07:56:24.880Z,44.80
2022-11-23T07:58:52.141Z,41.30
2022-11-23T08:01:20.114Z,45.67
2022-11-23T08:03:48.479Z,53.60
2022-11-23T08:06:16.781Z,46.07
2022-11-23T08:08:44.052Z,69.57
2022-11-23T08:11:14.642Z,48.97
2022-11-23T08:13:41.675Z,52.70
2022-11-23T08:16:08.799Z,65.63
2022-11-23T08:18:38.198Z,58.10
2022-11-23T08:21:05.763Z,51.43
2022-11-23T08:23:33.023Z,53.43
2022-11-23T08:26:02.456Z,55.00
2022-11-23T08:28:29.588Z,52.00
2022-11-23T08:30:56.573Z,38.87
2022-11-23T08:33:23.577Z,46.50
2022-11-23T08:35:50.519Z,35.20
2022-11-23T08:38:17.612Z,47.57
2022-11-23T08:40:44.780Z,47.37
2022-11-23T08:43:11.783Z,39.60
2022-11-23T08:45:39.032Z,34.00
2022-11-23T08:48:06.992Z,34.93
2022-11-23T08:50:35.219Z,39.30
2022-11-23T08:53:02.247Z,36.67
2022-11-23T08:55:29.997Z,39.33
2022-11-23T08:57:58.502Z,35.60
2022-11-23T09:00:26.744Z,31.87
2022-11-23T09:02:53.869Z,35.97
2022-11-23T09:05:21.844Z,39.47
2022-11-23T09:07:49.015Z,35.87
2022-11-23T09:10:18.718Z,29.17
2022-11-23T09:12:48.258Z,40.77
2022-11-23T09:15:15.668Z,34.90
2022-11-23T09:17:42.983Z,36.00
2022-11-23T09:20:11.502Z,47.90
2022-11-23T09:22:39.261Z,38.80
2022-11-23T09:25:07.273Z,42.00
2022-11-23T09:27:34.422Z,35.97
2022-11-23T09:30:01.636Z,34.73
2022-11-23T09:32:29.148Z,40.43
2022-11-23T09:34:56.116Z,36.83
2022-11-23T09:37:23.208Z,42.67
2022-11-23T09:39:50.190Z,39.00
2022-11-23T09:42:47.292Z,39.30
2022-11-23T09:45:50.683Z,37.30
2022-11-23T09:49:14.827Z,38.57
2022-11-23T09:51:43.096Z,40.97
2022-11-23T09:54:37.512Z,38.40
2022-11-23T09:57:05.652Z,42.23
2022-11-23T09:59:53.259Z,41.30
2022-11-23T10:02:24.980Z,39.83
2022-11-23T10:04:53.588Z,36.23
2022-11-23T10:08:06.477Z,38.10
2022-11-23T10:10:46.659Z,38.33
2022-11-23T10:13:53.725Z,39.33
2022-11-23T10:17:14.768Z,43.33
2022-11-23T10:20:18.287Z,39.80
2022-11-23T10:23:01.868Z,41.20
2022-11-23T10:25:47.296Z,37.93
2022-11-23T10:28:19.858Z,38.93
2022-11-23T10:31:17.822Z,39.43
2022-11-23T10:34:23.668Z,42.03
2022-11-23T10:36:50.804Z,45.30
2022-11-23T10:39:25.948Z,38.27
2022-11-23T10:42:03.120Z,39.23
2022-11-23T10:44:38.060Z,35.63
2022-11-23T10:47:05.645Z,41.23
2022-11-23T10:49:35.488Z,40.27
2022-11-23T10:52:33.433Z,50.47
2022-11-23T10:55:06.142Z,48.80
2022-11-23T10:57:42.694Z,39.57
2022-11-23T11:00:15.402Z,41.40
2022-11-23T11:02:54.310Z,38.13
2022-11-23T11:08:36.871Z,37.40
2022-11-23T11:11:21.093Z,30.43
2022-11-23T11:13:49.490Z,36.50
2022-11-23T11:16:35.549Z,45.57
2022-11-23T11:19:36.420Z,40.87
2022-11-23T11:22:33.379Z,33.77
2022-11-23T11:25:02.344Z,33.20
2022-11-23T11:27:31.946Z,30.97
2022-11-23T11:30:20.525Z,31.17
2022-11-23T11:33:26.260Z,41.10
2022-11-23T11:35:56.521Z,30.83
2022-11-23T11:38:35.725Z,37.57
2022-11-23T11:41:15.584Z,32.77
2022-11-23T11:43:53.558Z,35.47
2022-11-23T11:46:29.641Z,31.37
2022-11-23T11:49:21.624Z,27.83
2022-11-23T11:52:19.017Z,31.50
2022-11-23T11:55:15.297Z,29.27
2022-11-23T11:57:50.075Z,27.30
2022-11-23T12:00:20.657Z,26.30
2022-11-23T12:03:42.922Z,29.33
2022-11-23T12:06:36.021Z,28.00
2022-11-23T12:09:20.209Z,33.60
2022-11-23T12:11:47.357Z,34.07
2022-11-23T12:14:15.626Z,39.50
2022-11-23T12:17:32.344Z,29.33
2022-11-23T12:20:22.634Z,36.17
2022-11-23T12:23:19.497Z,143.43
2022-11-23T12:26:29.969Z,68.90
2022-11-23T12:29:31.694Z,51.30
2022-11-23T12:32:51.807Z,29.83
2022-11-23T12:36:07.236Z,30.83
2022-11-23T12:39:09.985Z,30.77
2022-11-23T12:42:15.096Z,27.23
2022-11-23T12:44:59.647Z,26.57
2022-11-23T12:48:15.439Z,26.87
2022-11-23T12:51:23.573Z,29.53
2022-11-23T12:54:17.413Z,28.57
2022-11-23T12:57:02.268Z,26.63
2022-11-23T12:59:57.957Z,25.20
2022-11-23T13:02:57.292Z,26.33
2022-11-23T13:06:02.143Z,28.40
2022-11-23T13:09:07.443Z,31.30
2022-11-23T13:12:17.523Z,27.53
2022-11-23T13:15:23.156Z,27.57
2022-11-23T13:18:23.143Z,24.97
2022-11-23T13:21:30.361Z,22.00
2022-11-23T13:23:57.430Z,29.37
2022-11-23T13:26:33.964Z,23.47
2022-11-23T13:29:51.722Z,28.10
2022-11-23T13:32:42.311Z,26.80
2022-11-23T13:35:21.035Z,28.17
2022-11-23T13:37:56.697Z,25.67
2022-11-23T13:40:35.796Z,28.37
2022-11-23T13:43:32.624Z,33.40
2022-11-23T13:46:28.755Z,27.37
2022-11-23T13:49:00.582Z,31.43
2022-11-23T13:51:35.891Z,29.53
2022-11-23T13:54:21.852Z,28.97
2022-11-23T13:57:02.161Z,33.37
2022-11-23T13:59:34.879Z,30.40
2022-11-23T14:02:07.959Z,31.13
2022-11-23T14:05:11.634Z,28.87
2022-11-23T14:07:46.456Z,36.00
2022-11-23T14:10:24.388Z,40.83
2022-11-23T14:13:05.623Z,41.57
2022-11-23T14:15:38.292Z,35.13
2022-11-23T14:18:58.780Z,36.63
2022-11-23T14:21:39.259Z,42.93
2022-11-23T14:25:08.852Z,50.10
2022-11-23T14:28:32.047Z,45.33
2022-11-23T14:31:46.398Z,42.70
2022-11-23T14:34:41.307Z,56.17
2022-11-23T14:38:00.289Z,55.63
2022-11-23T14:41:19.337Z,56.70
2022-11-23T14:43:47.541Z,54.17
2022-11-23T14:46:24.653Z,54.33
2022-11-23T14:49:02.805Z,66.00
2022-11-23T14:51:30.002Z,64.17
2022-11-23T14:54:08.081Z,56.13
2022-11-23T14:56:47.459Z,57.17
2022-11-23T14:59:17.441Z,49.63
2022-11-23T15:02:11.672Z,53.83
2022-11-23T15:05:07.421Z,77.67
2022-11-23T15:08:21.819Z,54.50
2022-11-23T15:11:22.072Z,60.73
2022-11-23T15:13:55.430Z,79.17
2022-11-23T15:16:22.676Z,80.57
2022-11-23T15:18:49.777Z,87.70
2022-11-23T15:21:27.968Z,62.60
2022-11-23T15:23:58.200Z,91.83
2022-11-23T15:26:48.090Z,71.93
2022-11-23T15:29:39.113Z,66.63
2022-11-23T15:32:34.693Z,75.00
2022-11-23T15:35:12.919Z,73.30
2022-11-23T15:37:48.855Z,75.27
2022-11-23T15:40:19.333Z,72.67
2022-11-23T15:42:51.126Z,86.57
2022-11-23T15:45:45.660Z,88.13
2022-11-23T15:48:23.130Z,91.07
2022-11-23T15:51:04.634Z,85.57
2022-11-23T15:53:51.872Z,77.73
2022-11-23T15:56:36.137Z,94.87
2022-11-23T15:59:33.590Z,89.20
2022-11-23T16:02:04.822Z,77.80
2022-11-23T16:04:41.346Z,83.47
2022-11-23T16:07:25.697Z,76.03
2022-11-23T16:10:22.945Z,68.60
2022-11-23T16:12:57.145Z,65.20
2022-11-23T16:15:44.124Z,55.97
2022-11-23T16:18:31.779Z,78.97
2022-11-23T16:21:04.892Z,58.57
2022-11-23T16:24:04.905Z,65.57
2022-11-23T16:26:33.772Z,62.17
2022-11-23T16:29:02.074Z,60.93
2022-11-23T16:31:37.013Z,69.63
2022-11-23T16:34:16.492Z,72.67
2022-11-23T16:36:43.483Z,69.53
2022-11-23T16:39:11.190Z,84.33
2022-11-23T16:41:38.461Z,76.30
2022-11-23T16:44:05.671Z,68.63
2022-11-23T16:46:33.029Z,65.10
2022-11-23T16:49:00.669Z,67.17
2022-11-23T16:51:30.471Z,76.07
2022-11-23T16:54:15.284Z,61.87
2022-11-23T16:56:45.187Z,75.37
2022-11-23T16:59:22.704Z,67.13
2022-11-23T17:01:56.623Z,92.53
2022-11-23T17:04:25.361Z,88.40
2022-11-23T17:06:52.404Z,103.93
2022-11-23T17:09:19.531Z,97.03
2022-11-23T17:11:50.227Z,81.57
2022-11-23T17:14:19.149Z,76.53
2022-11-23T17:16:57.389Z,77.37
2022-11-23T17:19:24.443Z,61.47
2022-11-23T17:21:51.622Z,65.93
2022-11-23T17:24:18.906Z,75.93
2022-11-23T17:26:52.632Z,83.10
2022-11-23T17:29:21.239Z,80.20
2022-11-23T17:31:50.559Z,88.37
2022-11-23T17:34:18.003Z,73.20
2022-11-23T17:36:49.281Z,103.23
2022-11-23T17:39:23.550Z,76.77
2022-11-23T17:41:51.135Z,113.20
2022-11-23T17:44:18.267Z,73.13
2022-11-23T17:46:47.045Z,111.73
2022-11-23T17:49:19.943Z,127.23
2022-11-23T17:51:47.081Z,102.37
2022-11-23T17:54:14.051Z,100.77
2022-11-23T17:56:41.085Z,93.40
2022-11-23T17:59:08.613Z,91.17
2022-11-23T18:01:35.744Z,82.20
2022-11-23T18:04:04.831Z,93.57
2022-11-23T18:06:32.026Z,84.83
2022-11-23T18:08:59.267Z,79.13
2022-11-23T18:11:28.383Z,107.57
2022-11-23T18:13:55.697Z,102.13
2022-11-23T18:16:23.810Z,105.73
2022-11-23T18:18:51.026Z,115.40
2022-11-23T18:21:18.941Z,95.83
2022-11-23T18:23:46.124Z,107.23
2022-11-23T18:26:25.874Z,117.93
2022-11-23T18:28:53.666Z,124.43
2022-11-23T18:31:21.146Z,105.10
2022-11-23T18:33:48.238Z,167.13
2022-11-23T18:36:15.882Z,135.43
2022-11-23T18:38:46.597Z,99.77
2022-11-23T18:41:16.398Z,130.90
2022-11-23T18:43:45.316Z,127.10
2022-11-23T18:46:19.132Z,143.97
2022-11-23T18:48:48.767Z,154.90
2022-11-23T18:51:17.269Z,116.83
2022-11-23T18:53:47.322Z,137.80
2022-11-23T18:56:14.387Z,127.53
2022-11-23T18:58:44.625Z,115.00
2022-11-23T19:01:21.919Z,97.73
2022-11-23T19:03:52.842Z,109.13
2022-11-23T19:06:22.737Z,80.97
2022-11-23T19:08:54.573Z,85.40
2022-11-23T19:11:25.970Z,84.00
2022-11-23T19:13:57.551Z,88.23
2022-11-23T19:16:29.985Z,106.57
2022-11-23T19:19:06.671Z,103.17
2022-11-23T19:21:36.028Z,114.47
2022-11-23T19:24:04.092Z,107.30
2022-11-23T19:26:31.606Z,129.20
2022-11-23T19:28:59.384Z,109.60
2022-11-23T19:31:30.284Z,87.50
2022-11-23T19:34:01.577Z,102.93
2022-11-23T19:36:31.147Z,85.57
2022-11-23T19:39:00.547Z,92.77
2022-11-23T19:41:30.654Z,79.73
2022-11-23T19:44:00.413Z,96.60
2022-11-23T19:46:30.299Z,83.33
2022-11-23T19:48:58.384Z,118.60
2022-11-23T19:51:26.879Z,61.67
2022-11-23T19:53:57.030Z,63.40
2022-11-23T19:56:28.734Z,79.70
2022-11-23T19:59:01.155Z,71.17
2022-11-23T20:01:32.089Z,84.93
2022-11-23T20:04:08.841Z,98.57
2022-11-23T20:06:38.649Z,73.67
2022-11-23T20:09:10.216Z,92.60
2022-11-23T20:11:40.354Z,93.73
2022-11-23T20:14:10.679Z,105.80
2022-11-23T20:16:38.634Z,101.90
2022-11-23T20:19:09.405Z,109.87
2022-11-23T20:21:37.885Z,76.70
2022-11-23T20:24:11.441Z,110.37
2022-11-23T20:26:39.152Z,112.93
2022-11-23T20:29:08.463Z,103.80
2022-11-23T20:31:37.121Z,91.60
2022-11-23T20:34:07.547Z,105.53
2022-11-23T20:36:38.021Z,92.53
2022-11-23T20:39:09.768Z,113.77
2022-11-23T20:41:38.472Z,123.50
2022-11-23T20:44:12.642Z,137.43
2022-11-23T20:49:27.896Z,143.47
2022-11-23T20:51:54.895Z,130.53
2022-11-23T20:54:21.923Z,131.77
2022-11-23T20:56:48.912Z,115.33
2022-11-23T20:59:16.061Z,113.30
2022-11-23T21:01:43.110Z,89.23
2022-11-23T21:04:10.263Z,94.10
2022-11-23T21:06:39.814Z,96.00
2022-11-23T21:09:09.250Z,121.80
2022-11-23T21:11:58.324Z,131.97
2022-11-23T21:14:27.992Z,97.67
2022-11-23T21:16:59.276Z,122.87
2022-11-23T21:19:42.009Z,94.07
2022-11-23T21:22:13.433Z,162.73
2022-11-23T21:24:40.882Z,133.90
2022-11-23T21:27:12.504Z,88.30
2022-11-23T21:29:39.533Z,166.13
2022-11-23T21:32:06.564Z,98.17
2022-11-23T21:34:33.891Z,129.73
2022-11-23T21:37:01.613Z,124.17
2022-11-23T21:39:31.544Z,186.97
2022-11-23T21:41:58.856Z,197.73
2022-11-23T21:44:26.368Z,113.47
2022-11-23T21:46:53.495Z,157.87
2022-11-23T21:49:20.593Z,127.50
2022-11-23T21:51:48.191Z,90.73
2022-11-23T21:54:15.700Z,87.93
2022-11-23T21:56:45.609Z,196.90
2022-11-23T21:59:13.333Z,122.47
2022-11-23T22:01:42.479Z,143.27
2022-11-23T22:04:16.159Z,93.17
2022-11-23T22:06:45.325Z,113.23
2022-11-23T22:09:13.774Z,94.20
2022-11-23T22:11:43.653Z,129.57
2022-11-23T22:14:15.208Z,96.13
2022-11-23T22:16:56.608Z,115.90
2022-11-23T22:19:27.389Z,114.97
2022-11-23T22:21:54.506Z,85.37
2022-11-23T22:24:22.586Z,118.17
2022-11-23T22:26:49.939Z,130.30
2022-11-23T22:29:17.225Z,140.90
2022-11-23T22:31:44.462Z,147.57
2022-11-23T22:34:13.807Z,114.77
2022-11-23T22:36:41.368Z,170.97
2022-11-23T22:39:09.532Z,156.87
2022-11-23T22:41:38.181Z,201.73
2022-11-23T22:44:09.808Z,183.60
2022-11-23T22:46:38.536Z,116.10
2022-11-23T22:49:06.020Z,201.37
2022-11-23T22:51:33.724Z,115.70
2022-11-23T22:54:01.953Z,159.77
2022-11-23T22:56:31.171Z,166.47
2022-11-23T22:58:58.969Z,137.73
2022-11-23T23:01:30.136Z,239.00
2022-11-23T23:04:01.422Z,222.13
2022-11-23T23:06:35.832Z,268.70
2022-11-23T23:09:07.188Z,190.87
2022-11-23T23:11:35.699Z,149.03
2022-11-23T23:14:03.551Z,215.30
2022-11-23T23:16:31.023Z,228.27
2022-11-23T23:18:59.666Z,326.40
2022-11-23T23:21:29.116Z,163.17
2022-11-23T23:24:00.937Z,194.47
2022-11-23T23:26:29.106Z,228.93
2022-11-23T23:28:59.763Z,303.93
2022-11-23T23:31:28.459Z,275.73
2022-11-23T23:33:55.770Z,243.10
2022-11-23T23:36:24.451Z,336.37
2022-11-23T23:38:52.121Z,379.37
2022-11-23T23:41:19.664Z,192.07
2022-11-23T23:43:48.294Z,206.70
2022-11-23T23:46:16.362Z,164.93
2022-11-23T23:48:44.061Z,259.40
2022-11-23T23:51:18.152Z,233.23
2022-11-23T23:53:46.640Z,363.87
2022-11-23T23:56:27.121Z,337.73
2022-11-23T23:58:59.044Z,247.50
